sensor_id;sensor_type;location;lat;lon;timestamp;temperature;humidity
28159;DHT22;15447;50.828;4.406;2023-12-20T06:30:48;5.80;99.90
28159;DHT22;15447;50.828;4.406;2023-12-20T06:33:15;5.90;99.90
28159;DHT22;15447;50.828;4.406;2023-12-20T06:35:40;5.90;99.90
28159;DHT22;15447;50.828;4.406;2023-12-20T06:38:06;5.90;99.90
28159;DHT22;15447;50.828;4.406;2023-12-20T06:40:32;5.90;99.90
28159;DHT22;15447;50.828;4.406;2023-12-20T06:42:57;5.90;99.90
28159;DHT22;15447;50.828;4.406;2023-12-20T06:45:25;5.90;99.90
28159;DHT22;15447;50.828;4.406;2023-12-20T06:47:50;5.80;99.90
28159;DHT22;15447;50.828;4.406;2023-12-20T06:50:16;5.80;99.90
28159;DHT22;15447;50.828;4.406;2023-12-20T06:52:44;5.80;99.90
28159;DHT22;15447;50.828;4.406;2023-12-20T06:55:09;5.80;99.90
28159;DHT22;15447;50.828;4.406;2023-12-20T06:57:35;5.70;99.90
28159;DHT22;15447;50.828;4.406;2023-12-20T07:00:02;5.70;99.90
28159;DHT22;15447;50.828;4.406;2023-12-20T07:02:28;5.60;99.90
28159;DHT22;15447;50.828;4.406;2023-12-20T07:04:55;5.50;99.90
28159;DHT22;15447;50.828;4.406;2023-12-20T07:07:25;5.50;99.90
28159;DHT22;15447;50.828;4.406;2023-12-20T07:09:54;5.50;99.90
28159;DHT22;15447;50.828;4.406;2023-12-20T07:12:22;5.40;99.90
28159;DHT22;15447;50.828;4.406;2023-12-20T07:14:47;5.40;99.90
28159;DHT22;15447;50.828;4.406;2023-12-20T07:17:13;5.40;99.90
28159;DHT22;15447;50.828;4.406;2023-12-20T07:19:43;5.30;99.90
28159;DHT22;15447;50.828;4.406;2023-12-20T07:22:09;5.40;99.90
28159;DHT22;15447;50.828;4.406;2023-12-20T07:25:06;5.40;99.90
28159;DHT22;15447;50.828;4.406;2023-12-20T07:27:32;5.40;99.90
28159;DHT22;15447;50.828;4.406;2023-12-20T07:29:58;5.40;99.90
28159;DHT22;15447;50.828;4.406;2023-12-20T07:32:24;5.40;99.90
28159;DHT22;15447;50.828;4.406;2023-12-20T07:34:49;5.40;99.90
28159;DHT22;15447;50.828;4.406;2023-12-20T07:37:15;5.50;99.90
28159;DHT22;15447;50.828;4.406;2023-12-20T07:39:41;5.50;99.90
28159;DHT22;15447;50.828;4.406;2023-12-20T07:42:08;5.50;99.90
28159;DHT22;15447;50.828;4.406;2023-12-20T07:44:33;5.40;99.90
28159;DHT22;15447;50.828;4.406;2023-12-20T07:47:01;5.40;99.90
28159;DHT22;15447;50.828;4.406;2023-12-20T07:49:27;5.40;99.90
28159;DHT22;15447;50.828;4.406;2023-12-20T07:51:52;5.40;99.90
28159;DHT22;15447;50.828;4.406;2023-12-20T07:54:18;5.40;99.90
28159;DHT22;15447;50.828;4.406;2023-12-20T07:56:46;5.30;99.90
28159;DHT22;15447;50.828;4.406;2023-12-20T07:59:11;5.30;99.90
28159;DHT22;15447;50.828;4.406;2023-12-20T08:01:37;5.30;99.90
28159;DHT22;15447;50.828;4.406;2023-12-20T08:04:03;5.40;99.90
28159;DHT22;15447;50.828;4.406;2023-12-20T08:06:28;5.40;99.90
28159;DHT22;15447;50.828;4.406;2023-12-20T08:08:54;5.40;99.90
28159;DHT22;15447;50.828;4.406;2023-12-20T08:11:20;5.40;99.90
28159;DHT22;15447;50.828;4.406;2023-12-20T08:13:46;5.50;99.90
28159;DHT22;15447;50.828;4.406;2023-12-20T08:16:11;5.60;99.90
28159;DHT22;15447;50.828;4.406;2023-12-20T08:18:39;5.90;99.90
28159;DHT22;15447;50.828;4.406;2023-12-20T08:21:04;6.10;99.90
28159;DHT22;15447;50.828;4.406;2023-12-20T08:23:33;6.40;99.90
28159;DHT22;15447;50.828;4.406;2023-12-20T08:25:58;6.80;99.90
28159;DHT22;15447;50.828;4.406;2023-12-20T08:28:28;7.10;99.90
28159;DHT22;15447;50.828;4.406;2023-12-20T08:30:54;7.30;99.90
28159;DHT22;15447;50.828;4.406;2023-12-20T08:33:20;7.50;99.90
28159;DHT22;15447;50.828;4.406;2023-12-20T08:35:45;7.70;99.90
28159;DHT22;15447;50.828;4.406;2023-12-20T08:38:11;7.80;99.90
28159;DHT22;15447;50.828;4.406;2023-12-20T08:40:37;7.90;99.90
28159;DHT22;15447;50.828;4.406;2023-12-20T08:43:03;8.10;99.90
28159;DHT22;15447;50.828;4.406;2023-12-20T08:45:29;8.30;99.90
28159;DHT22;15447;50.828;4.406;2023-12-20T08:47:54;8.50;99.90
28159;DHT22;15447;50.828;4.406;2023-12-20T08:50:20;8.70;99.90
28159;DHT22;15447;50.828;4.406;2023-12-20T08:52:46;8.80;99.90
28159;DHT22;15447;50.828;4.406;2023-12-20T08:55:12;8.50;99.90
28159;DHT22;15447;50.828;4.406;2023-12-20T08:57:38;8.20;99.90
28159;DHT22;15447;50.828;4.406;2023-12-20T09:00:04;8.20;99.90
28159;DHT22;15447;50.828;4.406;2023-12-20T09:02:32;8.40;99.90
28159;DHT22;15447;50.828;4.406;2023-12-20T09:04:58;8.80;99.90
28159;DHT22;15447;50.828;4.406;2023-12-20T09:07:25;9.10;99.90
28159;DHT22;15447;50.828;4.406;2023-12-20T09:09:51;8.90;99.90
28159;DHT22;15447;50.828;4.406;2023-12-20T09:12:18;8.50;99.90
28159;DHT22;15447;50.828;4.406;2023-12-20T09:14:45;8.20;99.90
28159;DHT22;15447;50.828;4.406;2023-12-20T09:17:10;7.90;99.90
28159;DHT22;15447;50.828;4.406;2023-12-20T09:19:37;7.80;99.90
28159;DHT22;15447;50.828;4.406;2023-12-20T09:22:03;7.80;99.90
28159;DHT22;15447;50.828;4.406;2023-12-20T09:24:29;7.80;99.90
28159;DHT22;15447;50.828;4.406;2023-12-20T09:26:55;8.00;99.90
28159;DHT22;15447;50.828;4.406;2023-12-20T09:29:20;8.30;99.90
28159;DHT22;15447;50.828;4.406;2023-12-20T09:31:46;8.70;99.90
28159;DHT22;15447;50.828;4.406;2023-12-20T09:34:14;9.00;99.90
28159;DHT22;15447;50.828;4.406;2023-12-20T09:36:40;9.40;99.90
28159;DHT22;15447;50.828;4.406;2023-12-20T09:39:13;9.80;99.90
28159;DHT22;15447;50.828;4.406;2023-12-20T09:41:43;9.90;99.90
28159;DHT22;15447;50.828;4.406;2023-12-20T09:44:14;9.90;99.90
28159;DHT22;15447;50.828;4.406;2023-12-20T09:46:43;10.30;99.90
28159;DHT22;15447;50.828;4.406;2023-12-20T09:49:10;10.80;99.90
28159;DHT22;15447;50.828;4.406;2023-12-20T09:51:36;10.50;99.90
28159;DHT22;15447;50.828;4.406;2023-12-20T09:54:03;10.40;99.90
28159;DHT22;15447;50.828;4.406;2023-12-20T09:56:30;10.50;99.90
28159;DHT22;15447;50.828;4.406;2023-12-20T09:58:56;10.60;99.90
28159;DHT22;15447;50.828;4.406;2023-12-20T10:01:22;10.50;99.90
28159;DHT22;15447;50.828;4.406;2023-12-20T10:03:51;10.10;99.90
28159;DHT22;15447;50.828;4.406;2023-12-20T10:06:16;9.90;99.90
28159;DHT22;15447;50.828;4.406;2023-12-20T10:08:42;9.70;99.90
28159;DHT22;15447;50.828;4.406;2023-12-20T10:11:08;9.40;99.90
28159;DHT22;15447;50.828;4.406;2023-12-20T10:13:34;9.10;99.90
28159;DHT22;15447;50.828;4.406;2023-12-20T10:16:04;8.90;99.90
28159;DHT22;15447;50.828;4.406;2023-12-20T10:18:31;8.70;99.90
28159;DHT22;15447;50.828;4.406;2023-12-20T10:20:57;8.60;99.90
28159;DHT22;15447;50.828;4.406;2023-12-20T10:23:23;8.80;99.90
28159;DHT22;15447;50.828;4.406;2023-12-20T10:25:58;9.30;99.90
28159;DHT22;15447;50.828;4.406;2023-12-20T10:28:25;9.60;99.90
28159;DHT22;15447;50.828;4.406;2023-12-20T10:30:53;9.50;99.90
28159;DHT22;15447;50.828;4.406;2023-12-20T10:33:28;9.30;99.90
28159;DHT22;15447;50.828;4.406;2023-12-20T10:35:56;9.10;99.90
28159;DHT22;15447;50.828;4.406;2023-12-20T10:38:22;9.00;99.90
28159;DHT22;15447;50.828;4.406;2023-12-20T10:40:48;9.00;99.90
28159;DHT22;15447;50.828;4.406;2023-12-20T10:43:15;9.00;99.90
28159;DHT22;15447;50.828;4.406;2023-12-20T10:45:42;9.00;99.90
28159;DHT22;15447;50.828;4.406;2023-12-20T10:48:10;8.90;99.90
28159;DHT22;15447;50.828;4.406;2023-12-20T10:50:37;8.80;99.90
28159;DHT22;15447;50.828;4.406;2023-12-20T10:53:06;8.90;99.90
28159;DHT22;15447;50.828;4.406;2023-12-20T10:55:33;8.90;99.90
28159;DHT22;15447;50.828;4.406;2023-12-20T10:58:07;8.90;99.90
28159;DHT22;15447;50.828;4.406;2023-12-20T11:00:38;9.00;99.90
28159;DHT22;15447;50.828;4.406;2023-12-20T11:03:05;9.00;99.90
28159;DHT22;15447;50.828;4.406;2023-12-20T11:11:26;9.00;99.90
28159;DHT22;15447;50.828;4.406;2023-12-20T11:14:13;8.90;99.90
28159;DHT22;15447;50.828;4.406;2023-12-20T11:16:41;8.80;99.90
28159;DHT22;15447;50.828;4.406;2023-12-20T11:19:07;8.80;99.90
28159;DHT22;15447;50.828;4.406;2023-12-20T11:21:33;8.80;99.90
28159;DHT22;15447;50.828;4.406;2023-12-20T11:24:02;8.80;99.90
28159;DHT22;15447;50.828;4.406;2023-12-20T11:26:29;8.80;99.90
28159;DHT22;15447;50.828;4.406;2023-12-20T11:29:31;8.80;99.90
28159;DHT22;15447;50.828;4.406;2023-12-20T11:31:59;8.70;99.90
28159;DHT22;15447;50.828;4.406;2023-12-20T11:34:27;8.70;99.90
28159;DHT22;15447;50.828;4.406;2023-12-20T11:36:58;8.60;99.90
28159;DHT22;15447;50.828;4.406;2023-12-20T11:39:26;8.60;99.90
28159;DHT22;15447;50.828;4.406;2023-12-20T11:41:57;8.60;99.90
28159;DHT22;15447;50.828;4.406;2023-12-20T11:44:24;8.60;99.90
28159;DHT22;15447;50.828;4.406;2023-12-20T11:46:50;8.60;99.90
28159;DHT22;15447;50.828;4.406;2023-12-20T11:49:16;8.60;99.90
28159;DHT22;15447;50.828;4.406;2023-12-20T11:51:42;8.50;99.90
28159;DHT22;15447;50.828;4.406;2023-12-20T11:54:08;8.50;99.90
28159;DHT22;15447;50.828;4.406;2023-12-20T11:56:36;8.60;99.90
28159;DHT22;15447;50.828;4.406;2023-12-20T11:59:01;8.60;99.90
28159;DHT22;15447;50.828;4.406;2023-12-20T12:01:27;8.70;99.90
28159;DHT22;15447;50.828;4.406;2023-12-20T12:04:05;8.70;99.90
28159;DHT22;15447;50.828;4.406;2023-12-20T12:06:30;8.80;99.90
28159;DHT22;15447;50.828;4.406;2023-12-20T12:08:56;8.80;99.90
28159;DHT22;15447;50.828;4.406;2023-12-20T12:11:22;8.90;99.90
28159;DHT22;15447;50.828;4.406;2023-12-20T12:13:49;8.90;99.90
28159;DHT22;15447;50.828;4.406;2023-12-20T12:16:20;8.90;99.90
28159;DHT22;15447;50.828;4.406;2023-12-20T12:18:46;8.80;99.90
28159;DHT22;15447;50.828;4.406;2023-12-20T12:21:21;8.80;99.90
28159;DHT22;15447;50.828;4.406;2023-12-20T12:23:46;8.80;99.90
28159;DHT22;15447;50.828;4.406;2023-12-20T12:26:12;8.80;99.90
28159;DHT22;15447;50.828;4.406;2023-12-20T12:28:40;8.80;99.90
28159;DHT22;15447;50.828;4.406;2023-12-20T12:31:07;8.80;99.90
28159;DHT22;15447;50.828;4.406;2023-12-20T12:33:33;8.80;99.90
28159;DHT22;15447;50.828;4.406;2023-12-20T12:36:00;8.80;99.90
28159;DHT22;15447;50.828;4.406;2023-12-20T12:38:26;8.90;99.90
28159;DHT22;15447;50.828;4.406;2023-12-20T12:40:54;8.90;99.90
28159;DHT22;15447;50.828;4.406;2023-12-20T12:43:19;8.90;99.90
28159;DHT22;15447;50.828;4.406;2023-12-20T12:45:45;8.80;99.90
28159;DHT22;15447;50.828;4.406;2023-12-20T12:48:11;8.80;99.90
28159;DHT22;15447;50.828;4.406;2023-12-20T12:50:37;8.80;99.90
28159;DHT22;15447;50.828;4.406;2023-12-20T12:53:02;8.80;99.90
28159;DHT22;15447;50.828;4.406;2023-12-20T12:55:28;8.80;99.90
28159;DHT22;15447;50.828;4.406;2023-12-20T12:57:54;8.80;99.90
28159;DHT22;15447;50.828;4.406;2023-12-20T13:00:20;8.80;99.90
28159;DHT22;15447;50.828;4.406;2023-12-20T13:02:47;8.80;99.90
28159;DHT22;15447;50.828;4.406;2023-12-20T13:05:12;8.80;99.90
28159;DHT22;15447;50.828;4.406;2023-12-20T13:07:38;8.90;99.90
28159;DHT22;15447;50.828;4.406;2023-12-20T13:10:05;8.90;99.90
28159;DHT22;15447;50.828;4.406;2023-12-20T13:12:31;8.90;99.90
28159;DHT22;15447;50.828;4.406;2023-12-20T13:14:57;8.90;99.90
28159;DHT22;15447;50.828;4.406;2023-12-20T13:17:23;8.90;99.90
28159;DHT22;15447;50.828;4.406;2023-12-20T13:19:49;8.80;99.90
28159;DHT22;15447;50.828;4.406;2023-12-20T13:22:15;8.80;99.90
28159;DHT22;15447;50.828;4.406;2023-12-20T13:24:41;8.90;99.90
28159;DHT22;15447;50.828;4.406;2023-12-20T13:27:09;8.90;99.90
28159;DHT22;15447;50.828;4.406;2023-12-20T13:29:35;8.90;99.90
28159;DHT22;15447;50.828;4.406;2023-12-20T13:32:01;9.00;99.90
28159;DHT22;15447;50.828;4.406;2023-12-20T13:34:26;9.00;99.90
28159;DHT22;15447;50.828;4.406;2023-12-20T13:36:52;9.10;99.90
28159;DHT22;15447;50.828;4.406;2023-12-20T13:39:18;9.10;99.90
28159;DHT22;15447;50.828;4.406;2023-12-20T13:41:44;9.10;99.90
28159;DHT22;15447;50.828;4.406;2023-12-20T13:44:09;9.10;99.90
28159;DHT22;15447;50.828;4.406;2023-12-20T13:46:36;9.10;99.90
28159;DHT22;15447;50.828;4.406;2023-12-20T13:49:02;9.10;99.90
28159;DHT22;15447;50.828;4.406;2023-12-20T13:51:27;9.10;99.90
28159;DHT22;15447;50.828;4.406;2023-12-20T13:53:53;9.10;99.90
28159;DHT22;15447;50.828;4.406;2023-12-20T13:56:19;9.10;99.90
28159;DHT22;15447;50.828;4.406;2023-12-20T13:58:45;9.10;99.90
28159;DHT22;15447;50.828;4.406;2023-12-20T14:01:12;9.10;99.90
28159;DHT22;15447;50.828;4.406;2023-12-20T14:03:38;9.10;99.90
28159;DHT22;15447;50.828;4.406;2023-12-20T14:06:03;9.10;99.90
28159;DHT22;15447;50.828;4.406;2023-12-20T14:08:29;9.10;99.90
28159;DHT22;15447;50.828;4.406;2023-12-20T14:10:55;9.10;99.90
28159;DHT22;15447;50.828;4.406;2023-12-20T14:13:20;9.10;99.90
28159;DHT22;15447;50.828;4.406;2023-12-20T14:15:46;9.20;99.90
28159;DHT22;15447;50.828;4.406;2023-12-20T14:18:13;9.20;99.90
28159;DHT22;15447;50.828;4.406;2023-12-20T14:20:40;9.10;99.90
28159;DHT22;15447;50.828;4.406;2023-12-20T14:23:08;9.10;99.90
28159;DHT22;15447;50.828;4.406;2023-12-20T14:25:37;9.10;99.90
28159;DHT22;15447;50.828;4.406;2023-12-20T14:28:04;9.10;99.90
28159;DHT22;15447;50.828;4.406;2023-12-20T14:30:29;9.10;99.90
28159;DHT22;15447;50.828;4.406;2023-12-20T14:32:55;9.10;99.90
28159;DHT22;15447;50.828;4.406;2023-12-20T14:35:21;9.20;99.90
28159;DHT22;15447;50.828;4.406;2023-12-20T14:37:47;9.20;99.90
28159;DHT22;15447;50.828;4.406;2023-12-20T14:40:12;9.20;99.90
28159;DHT22;15447;50.828;4.406;2023-12-20T14:42:45;9.10;99.90
28159;DHT22;15447;50.828;4.406;2023-12-20T14:45:11;9.10;99.90
28159;DHT22;15447;50.828;4.406;2023-12-20T14:47:38;9.10;99.90
28159;DHT22;15447;50.828;4.406;2023-12-20T14:50:05;9.10;99.90
28159;DHT22;15447;50.828;4.406;2023-12-20T14:52:32;9.10;99.90
28159;DHT22;15447;50.828;4.406;2023-12-20T14:54:59;9.20;99.90
28159;DHT22;15447;50.828;4.406;2023-12-20T14:57:25;9.10;99.90
28159;DHT22;15447;50.828;4.406;2023-12-20T14:59:51;9.20;99.90
28159;DHT22;15447;50.828;4.406;2023-12-20T15:02:17;9.20;99.90
28159;DHT22;15447;50.828;4.406;2023-12-20T15:04:43;9.20;99.90
28159;DHT22;15447;50.828;4.406;2023-12-20T15:07:08;9.20;99.90
28159;DHT22;15447;50.828;4.406;2023-12-20T15:09:34;9.20;99.90
28159;DHT22;15447;50.828;4.406;2023-12-20T15:12:00;9.20;99.90
28159;DHT22;15447;50.828;4.406;2023-12-20T15:14:26;9.20;99.90
28159;DHT22;15447;50.828;4.406;2023-12-20T15:16:52;9.20;99.90
28159;DHT22;15447;50.828;4.406;2023-12-20T15:19:17;9.30;99.90
28159;DHT22;15447;50.828;4.406;2023-12-20T15:21:43;9.30;99.90
28159;DHT22;15447;50.828;4.406;2023-12-20T15:24:09;9.30;99.90
28159;DHT22;15447;50.828;4.406;2023-12-20T15:26:42;9.30;99.90
28159;DHT22;15447;50.828;4.406;2023-12-20T15:29:09;9.40;99.90
28159;DHT22;15447;50.828;4.406;2023-12-20T15:31:36;9.40;99.90
28159;DHT22;15447;50.828;4.406;2023-12-20T15:34:03;9.30;99.90
28159;DHT22;15447;50.828;4.406;2023-12-20T15:36:28;9.30;99.90
28159;DHT22;15447;50.828;4.406;2023-12-20T15:38:54;9.30;99.90
28159;DHT22;15447;50.828;4.406;2023-12-20T15:41:21;9.30;99.90
28159;DHT22;15447;50.828;4.406;2023-12-20T15:43:47;9.30;99.90
28159;DHT22;15447;50.828;4.406;2023-12-20T15:46:13;9.30;99.90
28159;DHT22;15447;50.828;4.406;2023-12-20T15:48:39;9.30;99.90
28159;DHT22;15447;50.828;4.406;2023-12-20T15:51:08;9.30;99.90
28159;DHT22;15447;50.828;4.406;2023-12-20T15:53:34;9.30;99.90
28159;DHT22;15447;50.828;4.406;2023-12-20T15:56:01;9.30;99.90
28159;DHT22;15447;50.828;4.406;2023-12-20T15:58:27;9.30;99.90
28159;DHT22;15447;50.828;4.406;2023-12-20T16:00:53;9.30;99.90
28159;DHT22;15447;50.828;4.406;2023-12-20T16:03:18;9.30;99.90
28159;DHT22;15447;50.828;4.406;2023-12-20T16:05:44;9.30;99.90
28159;DHT22;15447;50.828;4.406;2023-12-20T16:08:10;9.30;99.90
28159;DHT22;15447;50.828;4.406;2023-12-20T16:10:35;9.30;99.90
28159;DHT22;15447;50.828;4.406;2023-12-20T16:13:01;9.30;99.90
28159;DHT22;15447;50.828;4.406;2023-12-20T16:15:26;9.30;99.90
28159;DHT22;15447;50.828;4.406;2023-12-20T16:17:52;9.30;99.90
28159;DHT22;15447;50.828;4.406;2023-12-20T16:20:18;9.30;99.90
28159;DHT22;15447;50.828;4.406;2023-12-20T16:22:44;9.30;99.90
28159;DHT22;15447;50.828;4.406;2023-12-20T16:25:09;9.30;99.90
28159;DHT22;15447;50.828;4.406;2023-12-20T16:27:36;9.30;99.90
28159;DHT22;15447;50.828;4.406;2023-12-20T16:30:03;9.30;99.90
28159;DHT22;15447;50.828;4.406;2023-12-20T16:32:29;9.30;99.90
28159;DHT22;15447;50.828;4.406;2023-12-20T16:34:54;9.30;99.90
28159;DHT22;15447;50.828;4.406;2023-12-20T16:37:20;9.30;99.90
28159;DHT22;15447;50.828;4.406;2023-12-20T16:39:46;9.30;99.90
28159;DHT22;15447;50.828;4.406;2023-12-20T16:42:11;9.30;99.90
28159;DHT22;15447;50.828;4.406;2023-12-20T16:44:37;9.30;99.90
28159;DHT22;15447;50.828;4.406;2023-12-20T16:47:03;9.30;99.90
28159;DHT22;15447;50.828;4.406;2023-12-20T16:49:28;9.30;99.90
28159;DHT22;15447;50.828;4.406;2023-12-20T16:51:54;9.30;99.90
28159;DHT22;15447;50.828;4.406;2023-12-20T16:54:20;9.30;99.90
28159;DHT22;15447;50.828;4.406;2023-12-20T16:56:45;9.20;99.90
28159;DHT22;15447;50.828;4.406;2023-12-20T16:59:11;9.20;99.90
28159;DHT22;15447;50.828;4.406;2023-12-20T17:01:37;9.20;99.90
28159;DHT22;15447;50.828;4.406;2023-12-20T17:04:03;9.20;99.90
28159;DHT22;15447;50.828;4.406;2023-12-20T17:06:28;9.20;99.90
28159;DHT22;15447;50.828;4.406;2023-12-20T17:08:54;9.20;99.90
28159;DHT22;15447;50.828;4.406;2023-12-20T17:11:20;9.30;99.90
28159;DHT22;15447;50.828;4.406;2023-12-20T17:13:49;9.20;99.90
28159;DHT22;15447;50.828;4.406;2023-12-20T17:16:14;9.30;99.90
28159;DHT22;15447;50.828;4.406;2023-12-20T17:18:40;9.20;99.90
28159;DHT22;15447;50.828;4.406;2023-12-20T17:21:06;9.30;99.90
28159;DHT22;15447;50.828;4.406;2023-12-20T17:23:33;9.30;99.90
28159;DHT22;15447;50.828;4.406;2023-12-20T17:25:59;9.30;99.90
28159;DHT22;15447;50.828;4.406;2023-12-20T17:28:24;9.20;99.90
28159;DHT22;15447;50.828;4.406;2023-12-20T17:30:50;9.20;99.90
28159;DHT22;15447;50.828;4.406;2023-12-20T17:33:16;9.20;99.90
28159;DHT22;15447;50.828;4.406;2023-12-20T17:35:41;9.30;99.90
28159;DHT22;15447;50.828;4.406;2023-12-20T17:38:07;9.20;99.90
28159;DHT22;15447;50.828;4.406;2023-12-20T17:40:33;9.20;99.90
28159;DHT22;15447;50.828;4.406;2023-12-20T17:42:59;9.20;99.90
28159;DHT22;15447;50.828;4.406;2023-12-20T17:45:24;9.20;99.90
28159;DHT22;15447;50.828;4.406;2023-12-20T17:47:50;9.20;99.90
28159;DHT22;15447;50.828;4.406;2023-12-20T17:50:16;9.20;99.90
28159;DHT22;15447;50.828;4.406;2023-12-20T17:52:41;9.10;99.90
28159;DHT22;15447;50.828;4.406;2023-12-20T17:55:10;9.10;99.90
28159;DHT22;15447;50.828;4.406;2023-12-20T17:57:36;9.20;99.90
28159;DHT22;15447;50.828;4.406;2023-12-20T18:00:14;9.20;99.90
28159;DHT22;15447;50.828;4.406;2023-12-20T18:02:41;9.20;99.90
28159;DHT22;15447;50.828;4.406;2023-12-20T18:05:07;9.20;99.90
28159;DHT22;15447;50.828;4.406;2023-12-20T18:07:33;9.20;99.90
28159;DHT22;15447;50.828;4.406;2023-12-20T18:09:58;9.20;99.90
28159;DHT22;15447;50.828;4.406;2023-12-20T18:12:24;9.10;99.90
28159;DHT22;15447;50.828;4.406;2023-12-20T18:14:50;9.10;99.90
28159;DHT22;15447;50.828;4.406;2023-12-20T18:17:18;9.20;99.90
28159;DHT22;15447;50.828;4.406;2023-12-20T18:19:44;9.10;99.90
28159;DHT22;15447;50.828;4.406;2023-12-20T18:22:10;9.10;99.90
28159;DHT22;15447;50.828;4.406;2023-12-20T18:24:35;9.10;99.90
28159;DHT22;15447;50.828;4.406;2023-12-20T18:27:01;9.10;99.90
28159;DHT22;15447;50.828;4.406;2023-12-20T18:29:26;9.00;99.90
28159;DHT22;15447;50.828;4.406;2023-12-20T18:31:52;9.00;99.90
28159;DHT22;15447;50.828;4.406;2023-12-20T18:34:17;9.00;99.90
28159;DHT22;15447;50.828;4.406;2023-12-20T18:36:43;9.00;99.90
28159;DHT22;15447;50.828;4.406;2023-12-20T18:39:09;9.00;99.90
28159;DHT22;15447;50.828;4.406;2023-12-20T18:41:35;9.00;99.90
28159;DHT22;15447;50.828;4.406;2023-12-20T18:44:01;8.90;99.90
28159;DHT22;15447;50.828;4.406;2023-12-20T18:46:27;9.00;99.90
28159;DHT22;15447;50.828;4.406;2023-12-20T18:48:52;8.90;99.90
28159;DHT22;15447;50.828;4.406;2023-12-20T18:51:19;8.90;99.90
28159;DHT22;15447;50.828;4.406;2023-12-20T18:53:45;8.90;99.90
28159;DHT22;15447;50.828;4.406;2023-12-20T18:56:13;8.90;99.90
28159;DHT22;15447;50.828;4.406;2023-12-20T18:58:39;8.90;99.90
28159;DHT22;15447;50.828;4.406;2023-12-20T19:01:04;8.90;99.90
28159;DHT22;15447;50.828;4.406;2023-12-20T19:03:30;8.90;99.90
28159;DHT22;15447;50.828;4.406;2023-12-20T19:05:56;9.00;99.90
28159;DHT22;15447;50.828;4.406;2023-12-20T19:08:23;9.00;99.90
28159;DHT22;15447;50.828;4.406;2023-12-20T19:10:51;9.00;99.90
28159;DHT22;15447;50.828;4.406;2023-12-20T19:13:23;9.00;99.90
28159;DHT22;15447;50.828;4.406;2023-12-20T19:16:00;9.10;99.90
28159;DHT22;15447;50.828;4.406;2023-12-20T19:18:26;9.10;99.90
28159;DHT22;15447;50.828;4.406;2023-12-20T19:20:52;9.10;99.90
28159;DHT22;15447;50.828;4.406;2023-12-20T19:23:18;9.10;99.90
28159;DHT22;15447;50.828;4.406;2023-12-20T19:25:44;9.10;99.90
28159;DHT22;15447;50.828;4.406;2023-12-20T19:28:12;9.10;99.90
28159;DHT22;15447;50.828;4.406;2023-12-20T19:30:38;9.10;99.90
28159;DHT22;15447;50.828;4.406;2023-12-20T19:33:04;9.20;99.90
28159;DHT22;15447;50.828;4.406;2023-12-20T19:35:30;9.20;99.90
28159;DHT22;15447;50.828;4.406;2023-12-20T19:38:06;9.20;99.90
28159;DHT22;15447;50.828;4.406;2023-12-20T19:40:38;9.20;99.90
28159;DHT22;15447;50.828;4.406;2023-12-20T19:43:03;9.20;99.90
28159;DHT22;15447;50.828;4.406;2023-12-20T19:45:33;9.20;99.90
28159;DHT22;15447;50.828;4.406;2023-12-20T19:47:59;9.30;99.90
28159;DHT22;15447;50.828;4.406;2023-12-20T19:50:24;9.30;99.90
28159;DHT22;15447;50.828;4.406;2023-12-20T19:52:50;9.30;99.90
28159;DHT22;15447;50.828;4.406;2023-12-20T19:55:16;9.30;99.90
28159;DHT22;15447;50.828;4.406;2023-12-20T19:57:41;9.30;99.90
28159;DHT22;15447;50.828;4.406;2023-12-20T20:00:07;9.30;99.90
28159;DHT22;15447;50.828;4.406;2023-12-20T20:02:34;9.30;99.90
28159;DHT22;15447;50.828;4.406;2023-12-20T20:05:01;9.30;99.90
28159;DHT22;15447;50.828;4.406;2023-12-20T20:07:27;9.30;99.90
28159;DHT22;15447;50.828;4.406;2023-12-20T20:09:52;9.30;99.90
28159;DHT22;15447;50.828;4.406;2023-12-20T20:12:18;9.30;99.90
28159;DHT22;15447;50.828;4.406;2023-12-20T20:14:44;9.30;99.90
28159;DHT22;15447;50.828;4.406;2023-12-20T20:17:10;9.30;99.90
28159;DHT22;15447;50.828;4.406;2023-12-20T20:19:36;9.40;99.90
28159;DHT22;15447;50.828;4.406;2023-12-20T20:22:01;9.30;99.90
28159;DHT22;15447;50.828;4.406;2023-12-20T20:24:27;9.30;99.90
28159;DHT22;15447;50.828;4.406;2023-12-20T20:26:53;9.30;99.90
28159;DHT22;15447;50.828;4.406;2023-12-20T20:29:18;9.30;99.90
28159;DHT22;15447;50.828;4.406;2023-12-20T20:31:44;9.40;99.90
28159;DHT22;15447;50.828;4.406;2023-12-20T20:34:09;9.40;99.90
28159;DHT22;15447;50.828;4.406;2023-12-20T20:36:37;9.40;99.90
28159;DHT22;15447;50.828;4.406;2023-12-20T20:39:03;9.40;99.90
28159;DHT22;15447;50.828;4.406;2023-12-20T20:41:30;9.40;99.90
28159;DHT22;15447;50.828;4.406;2023-12-20T20:43:56;9.40;99.90
28159;DHT22;15447;50.828;4.406;2023-12-20T20:46:22;9.40;99.90
28159;DHT22;15447;50.828;4.406;2023-12-20T20:48:53;9.40;99.90
28159;DHT22;15447;50.828;4.406;2023-12-20T20:51:20;9.40;99.90
28159;DHT22;15447;50.828;4.406;2023-12-20T20:53:46;9.40;99.90
28159;DHT22;15447;50.828;4.406;2023-12-20T20:56:12;9.40;99.90
28159;DHT22;15447;50.828;4.406;2023-12-20T20:58:38;9.50;99.90
28159;DHT22;15447;50.828;4.406;2023-12-20T21:01:03;9.40;99.90
28159;DHT22;15447;50.828;4.406;2023-12-20T21:03:31;9.50;99.90
28159;DHT22;15447;50.828;4.406;2023-12-20T21:05:57;9.50;99.90
28159;DHT22;15447;50.828;4.406;2023-12-20T21:08:22;9.50;99.90
28159;DHT22;15447;50.828;4.406;2023-12-20T21:10:52;9.60;99.90
28159;DHT22;15447;50.828;4.406;2023-12-20T21:13:24;9.60;99.90
28159;DHT22;15447;50.828;4.406;2023-12-20T21:15:50;9.60;99.90
28159;DHT22;15447;50.828;4.406;2023-12-20T21:18:16;9.60;99.90
28159;DHT22;15447;50.828;4.406;2023-12-20T21:20:42;9.60;99.90
28159;DHT22;15447;50.828;4.406;2023-12-20T21:23:07;9.60;99.90
28159;DHT22;15447;50.828;4.406;2023-12-20T21:25:35;9.60;99.90
28159;DHT22;15447;50.828;4.406;2023-12-20T21:28:00;9.60;99.90
28159;DHT22;15447;50.828;4.406;2023-12-20T21:30:27;9.50;99.90
28159;DHT22;15447;50.828;4.406;2023-12-20T21:32:52;9.50;99.90
28159;DHT22;15447;50.828;4.406;2023-12-20T21:35:18;9.50;99.90
28159;DHT22;15447;50.828;4.406;2023-12-20T21:37:44;9.50;99.90
28159;DHT22;15447;50.828;4.406;2023-12-20T21:40:11;9.50;99.90
28159;DHT22;15447;50.828;4.406;2023-12-20T21:42:36;9.50;99.90
28159;DHT22;15447;50.828;4.406;2023-12-20T21:45:10;9.50;99.90
28159;DHT22;15447;50.828;4.406;2023-12-20T21:47:39;9.50;99.90
28159;DHT22;15447;50.828;4.406;2023-12-20T21:50:07;9.50;99.90
28159;DHT22;15447;50.828;4.406;2023-12-20T21:52:33;9.50;99.90
28159;DHT22;15447;50.828;4.406;2023-12-20T21:54:58;9.50;99.90
28159;DHT22;15447;50.828;4.406;2023-12-20T21:57:24;9.60;99.90
28159;DHT22;15447;50.828;4.406;2023-12-20T21:59:49;9.50;99.90
28159;DHT22;15447;50.828;4.406;2023-12-20T22:02:15;9.50;99.90
28159;DHT22;15447;50.828;4.406;2023-12-20T22:04:41;9.50;99.90
28159;DHT22;15447;50.828;4.406;2023-12-20T22:07:06;9.50;99.90
28159;DHT22;15447;50.828;4.406;2023-12-20T22:09:32;9.60;99.90
28159;DHT22;15447;50.828;4.406;2023-12-20T22:12:00;9.70;99.90
28159;DHT22;15447;50.828;4.406;2023-12-20T22:14:27;9.60;99.90
28159;DHT22;15447;50.828;4.406;2023-12-20T22:16:55;9.70;99.90